Bayfield, CO (81122)

11:21 AM MST on February 10, 2016 (GMT -0700)
Timberdale Ranch | | Change Station
CLOSE
Current Station
Personal Weather Station
Location: Bayfield, CO
Elevation: 7690 ft
Nearby Weather Stations

Elev 7690 ft 37.30 °N, 107.65 °W | Updated 1 minute ago

Clear
Clear
48.2 °F
Feels Like 48 °F
N
1.8
Wind Variable Wind from WSW
Gusts 4.7 mph

Today
High -- | Low -- °F
--% Chance of Precip.
Yesterday
High -- | Low -- °F
Precip. -- in
Pressure 30.59 in
Visibility 10.0 miles
Clouds Clear
Windchill 48 °F
Dew Point 18 °F
Humidity 29%
Rainfall 0.00 in
Snow Depth Not available.
7:05 AM 5:44 PM
Waxing Crescent, 6% visible
METAR KDRO 101753Z AUTO 05005KT 10SM CLR 00/M07 A3046 RMK AO2 SLP359 T00001072 10000 21139 50003
Pressure 30.59 in
Visibility 10.0 miles
Clouds Clear
Windchill 48 °F
Dew Point 18 °F
Humidity 29%
Rainfall 0.00 in
Snow Depth Not available.
7:05 AM 5:44 PM
Waxing Crescent, 6% visible
METAR KDRO 101753Z AUTO 05005KT 10SM CLR 00/M07 A3046 RMK AO2 SLP359 T00001072 10000 21139 50003

10-Day Weather Forecast

Almanac

Astronomy

Feb. 10, 2016 Rise Set
Actual Time
Civil Twilight
Nautical Twilight
Astronomical Twilight
Moon
Length of Visible Light
Length of Day
Tomorrow will be .
, % of the Moon is Illuminated

Today's Extremes

State Highs State Lows

Community

WunderPhotos

Upload Photos

1,891,907 photos uploaded!

WunderBlog® & News

Nearby

Air Quality

  Air Quality AQ Index Pollutant
Not available.

Snow Depth

Station Depth Elevation

Earthquake Activity

City Distance Mag. Time & Date
Minimum magnitude displayed is 2.5.

Coastal Water Temperatures

Place Temperature

Stations

Nearby Weather Stations

Station Location Temp. Windchill Dew Point Humidity Wind Precip. Elev Updated Type
                   

Watches & Warnings

There are currently no watches in effect.